sensor_id;sensor_type;location;lat;lon;timestamp;P1;durP1;ratioP1;P2;durP2;ratioP2
16262;SDS011;8239;48.594;8.598;2022-08-03T00:00:56;4.00;;;3.67;;
16262;SDS011;8239;48.594;8.598;2022-08-03T00:03:24;3.80;;;3.50;;
16262;SDS011;8239;48.594;8.598;2022-08-03T00:05:51;4.10;;;3.80;;
16262;SDS011;8239;48.594;8.598;2022-08-03T00:08:18;3.85;;;3.40;;
16262;SDS011;8239;48.594;8.598;2022-08-03T00:10:46;4.10;;;3.75;;
16262;SDS011;8239;48.594;8.598;2022-08-03T00:13:13;4.25;;;3.88;;
16262;SDS011;8239;48.594;8.598;2022-08-03T00:15:40;4.90;;;4.50;;
16262;SDS011;8239;48.594;8.598;2022-08-03T00:18:08;5.13;;;4.65;;
16262;SDS011;8239;48.594;8.598;2022-08-03T00:20:36;4.85;;;4.45;;
16262;SDS011;8239;48.594;8.598;2022-08-03T00:23:03;4.47;;;4.18;;
16262;SDS011;8239;48.594;8.598;2022-08-03T00:25:31;4.80;;;4.50;;
16262;SDS011;8239;48.594;8.598;2022-08-03T00:27:59;4.15;;;3.85;;
16262;SDS011;8239;48.594;8.598;2022-08-03T00:30:26;5.15;;;3.88;;
16262;SDS011;8239;48.594;8.598;2022-08-03T00:32:53;4.78;;;3.88;;
16262;SDS011;8239;48.594;8.598;2022-08-03T00:35:20;3.83;;;3.53;;
16262;SDS011;8239;48.594;8.598;2022-08-03T00:37:49;4.20;;;3.80;;
16262;SDS011;8239;48.594;8.598;2022-08-03T00:40:17;4.32;;;3.92;;
16262;SDS011;8239;48.594;8.598;2022-08-03T00:42:46;4.10;;;3.70;;
16262;SDS011;8239;48.594;8.598;2022-08-03T00:45:15;4.10;;;3.70;;
16262;SDS011;8239;48.594;8.598;2022-08-03T00:47:42;3.88;;;3.47;;
16262;SDS011;8239;48.594;8.598;2022-08-03T00:50:09;3.97;;;3.67;;
16262;SDS011;8239;48.594;8.598;2022-08-03T00:52:36;3.63;;;3.33;;
16262;SDS011;8239;48.594;8.598;2022-08-03T00:55:06;4.47;;;4.00;;
16262;SDS011;8239;48.594;8.598;2022-08-03T00:57:33;3.70;;;3.40;;
16262;SDS011;8239;48.594;8.598;2022-08-03T01:00:01;3.88;;;3.58;;
16262;SDS011;8239;48.594;8.598;2022-08-03T01:02:28;4.10;;;3.80;;
16262;SDS011;8239;48.594;8.598;2022-08-03T01:04:55;3.90;;;3.60;;
16262;SDS011;8239;48.594;8.598;2022-08-03T01:07:25;3.80;;;3.50;;
16262;SDS011;8239;48.594;8.598;2022-08-03T01:10:03;3.95;;;3.65;;
16262;SDS011;8239;48.594;8.598;2022-08-03T01:12:37;3.70;;;3.40;;
16262;SDS011;8239;48.594;8.598;2022-08-03T01:15:09;4.55;;;4.15;;
16262;SDS011;8239;48.594;8.598;2022-08-03T01:17:47;5.07;;;4.20;;
16262;SDS011;8239;48.594;8.598;2022-08-03T01:20:17;4.97;;;4.57;;
16262;SDS011;8239;48.594;8.598;2022-08-03T01:23:02;4.78;;;4.20;;
16262;SDS011;8239;48.594;8.598;2022-08-03T01:25:45;4.88;;;4.10;;
16262;SDS011;8239;48.594;8.598;2022-08-03T01:28:27;4.18;;;3.88;;
16262;SDS011;8239;48.594;8.598;2022-08-03T01:31:09;3.80;;;3.50;;
16262;SDS011;8239;48.594;8.598;2022-08-03T01:33:39;3.60;;;3.30;;
16262;SDS011;8239;48.594;8.598;2022-08-03T01:36:11;3.88;;;3.58;;
16262;SDS011;8239;48.594;8.598;2022-08-03T01:38:42;3.83;;;3.53;;
16262;SDS011;8239;48.594;8.598;2022-08-03T01:41:14;3.60;;;3.40;;
16262;SDS011;8239;48.594;8.598;2022-08-03T01:43:45;5.53;;;3.88;;
16262;SDS011;8239;48.594;8.598;2022-08-03T01:46:16;3.77;;;3.47;;
16262;SDS011;8239;48.594;8.598;2022-08-03T01:48:45;3.53;;;3.28;;
16262;SDS011;8239;48.594;8.598;2022-08-03T01:51:14;4.07;;;3.60;;
16262;SDS011;8239;48.594;8.598;2022-08-03T01:53:43;4.00;;;3.70;;
16262;SDS011;8239;48.594;8.598;2022-08-03T01:56:12;3.42;;;3.22;;
16262;SDS011;8239;48.594;8.598;2022-08-03T01:58:41;3.83;;;3.37;;
16262;SDS011;8239;48.594;8.598;2022-08-03T02:01:11;5.38;;;3.42;;
16262;SDS011;8239;48.594;8.598;2022-08-03T02:03:42;3.63;;;3.33;;
16262;SDS011;8239;48.594;8.598;2022-08-03T02:06:10;3.70;;;3.40;;
16262;SDS011;8239;48.594;8.598;2022-08-03T02:08:38;3.33;;;3.13;;
16262;SDS011;8239;48.594;8.598;2022-08-03T02:11:07;3.60;;;3.30;;
16262;SDS011;8239;48.594;8.598;2022-08-03T02:13:34;3.78;;;3.47;;
16262;SDS011;8239;48.594;8.598;2022-08-03T02:16:01;3.90;;;3.40;;
16262;SDS011;8239;48.594;8.598;2022-08-03T02:18:29;3.43;;;3.23;;
16262;SDS011;8239;48.594;8.598;2022-08-03T02:20:58;4.97;;;3.20;;
16262;SDS011;8239;48.594;8.598;2022-08-03T02:23:28;4.40;;;3.20;;
16262;SDS011;8239;48.594;8.598;2022-08-03T02:25:56;3.70;;;3.43;;
16262;SDS011;8239;48.594;8.598;2022-08-03T02:28:28;4.60;;;3.53;;
16262;SDS011;8239;48.594;8.598;2022-08-03T02:30:58;3.43;;;3.13;;
16262;SDS011;8239;48.594;8.598;2022-08-03T02:33:29;3.63;;;3.33;;
16262;SDS011;8239;48.594;8.598;2022-08-03T02:36:00;3.53;;;3.20;;
16262;SDS011;8239;48.594;8.598;2022-08-03T02:38:30;3.77;;;3.43;;
16262;SDS011;8239;48.594;8.598;2022-08-03T02:40:59;4.00;;;3.20;;
16262;SDS011;8239;48.594;8.598;2022-08-03T02:43:30;3.37;;;3.17;;
16262;SDS011;8239;48.594;8.598;2022-08-03T02:45:58;3.73;;;2.97;;
16262;SDS011;8239;48.594;8.598;2022-08-03T02:48:28;3.50;;;3.20;;
16262;SDS011;8239;48.594;8.598;2022-08-03T02:50:57;3.83;;;3.53;;
16262;SDS011;8239;48.594;8.598;2022-08-03T02:53:29;4.57;;;4.17;;
16262;SDS011;8239;48.594;8.598;2022-08-03T02:55:57;4.43;;;4.10;;
16262;SDS011;8239;48.594;8.598;2022-08-03T02:58:25;4.60;;;4.00;;
16262;SDS011;8239;48.594;8.598;2022-08-03T03:00:54;3.80;;;3.47;;
16262;SDS011;8239;48.594;8.598;2022-08-03T03:03:22;3.83;;;3.53;;
16262;SDS011;8239;48.594;8.598;2022-08-03T03:05:50;4.67;;;3.63;;
16262;SDS011;8239;48.594;8.598;2022-08-03T03:08:18;3.80;;;3.50;;
16262;SDS011;8239;48.594;8.598;2022-08-03T03:10:48;3.83;;;3.53;;
16262;SDS011;8239;48.594;8.598;2022-08-03T03:13:15;3.57;;;3.37;;
16262;SDS011;8239;48.594;8.598;2022-08-03T03:15:44;3.70;;;3.40;;
16262;SDS011;8239;48.594;8.598;2022-08-03T03:18:13;4.00;;;3.70;;
16262;SDS011;8239;48.594;8.598;2022-08-03T03:20:42;4.20;;;3.90;;
16262;SDS011;8239;48.594;8.598;2022-08-03T03:23:11;4.10;;;3.70;;
16262;SDS011;8239;48.594;8.598;2022-08-03T03:25:39;3.90;;;3.57;;
16262;SDS011;8239;48.594;8.598;2022-08-03T03:28:08;4.73;;;4.07;;
16262;SDS011;8239;48.594;8.598;2022-08-03T03:30:36;4.40;;;4.00;;
16262;SDS011;8239;48.594;8.598;2022-08-03T03:33:03;4.73;;;4.10;;
16262;SDS011;8239;48.594;8.598;2022-08-03T03:35:31;6.77;;;4.67;;
16262;SDS011;8239;48.594;8.598;2022-08-03T03:37:58;4.60;;;4.20;;
16262;SDS011;8239;48.594;8.598;2022-08-03T03:40:26;4.23;;;3.83;;
16262;SDS011;8239;48.594;8.598;2022-08-03T03:42:53;4.20;;;3.80;;
16262;SDS011;8239;48.594;8.598;2022-08-03T03:45:22;4.03;;;3.63;;
16262;SDS011;8239;48.594;8.598;2022-08-03T03:47:50;3.80;;;3.50;;
16262;SDS011;8239;48.594;8.598;2022-08-03T03:50:17;4.90;;;4.50;;
16262;SDS011;8239;48.594;8.598;2022-08-03T03:52:44;4.67;;;4.27;;
16262;SDS011;8239;48.594;8.598;2022-08-03T03:55:14;4.73;;;4.33;;
16262;SDS011;8239;48.594;8.598;2022-08-03T03:57:42;4.80;;;4.40;;
16262;SDS011;8239;48.594;8.598;2022-08-03T04:00:10;4.50;;;4.10;;
16262;SDS011;8239;48.594;8.598;2022-08-03T04:02:39;5.23;;;4.30;;
16262;SDS011;8239;48.594;8.598;2022-08-03T04:05:07;4.27;;;3.97;;
16262;SDS011;8239;48.594;8.598;2022-08-03T04:07:55;4.90;;;4.50;;
16262;SDS011;8239;48.594;8.598;2022-08-03T04:10:42;4.70;;;4.30;;
16262;SDS011;8239;48.594;8.598;2022-08-03T04:13:26;4.40;;;4.00;;
16262;SDS011;8239;48.594;8.598;2022-08-03T04:15:57;4.00;;;3.70;;
16262;SDS011;8239;48.594;8.598;2022-08-03T04:18:28;3.80;;;3.50;;
16262;SDS011;8239;48.594;8.598;2022-08-03T04:20:57;4.33;;;3.93;;
16262;SDS011;8239;48.594;8.598;2022-08-03T04:23:27;4.07;;;3.67;;
16262;SDS011;8239;48.594;8.598;2022-08-03T04:25:58;5.57;;;3.80;;
16262;SDS011;8239;48.594;8.598;2022-08-03T04:28:32;4.37;;;3.97;;
16262;SDS011;8239;48.594;8.598;2022-08-03T04:31:01;4.70;;;3.80;;
16262;SDS011;8239;48.594;8.598;2022-08-03T04:33:31;4.27;;;3.90;;
16262;SDS011;8239;48.594;8.598;2022-08-03T04:36:00;4.33;;;3.93;;
16262;SDS011;8239;48.594;8.598;2022-08-03T04:38:33;4.23;;;3.90;;
16262;SDS011;8239;48.594;8.598;2022-08-03T04:41:04;5.83;;;4.20;;
16262;SDS011;8239;48.594;8.598;2022-08-03T04:43:32;5.40;;;4.20;;
16262;SDS011;8239;48.594;8.598;2022-08-03T04:46:01;4.63;;;4.17;;
16262;SDS011;8239;48.594;8.598;2022-08-03T04:48:29;4.00;;;3.60;;
16262;SDS011;8239;48.594;8.598;2022-08-03T04:50:57;4.27;;;3.87;;
16262;SDS011;8239;48.594;8.598;2022-08-03T04:53:28;4.45;;;3.78;;
16262;SDS011;8239;48.594;8.598;2022-08-03T04:56:02;4.25;;;3.60;;
16262;SDS011;8239;48.594;8.598;2022-08-03T04:58:29;4.72;;;3.65;;
16262;SDS011;8239;48.594;8.598;2022-08-03T05:00:57;4.20;;;3.80;;
16262;SDS011;8239;48.594;8.598;2022-08-03T05:03:24;4.10;;;3.70;;
16262;SDS011;8239;48.594;8.598;2022-08-03T05:05:52;4.15;;;3.58;;
16262;SDS011;8239;48.594;8.598;2022-08-03T05:08:20;4.00;;;3.67;;
16262;SDS011;8239;48.594;8.598;2022-08-03T05:10:47;4.28;;;3.72;;
16262;SDS011;8239;48.594;8.598;2022-08-03T05:13:14;4.10;;;3.70;;
16262;SDS011;8239;48.594;8.598;2022-08-03T05:15:41;4.00;;;3.70;;
16262;SDS011;8239;48.594;8.598;2022-08-03T05:18:08;4.15;;;3.85;;
16262;SDS011;8239;48.594;8.598;2022-08-03T05:20:35;4.43;;;3.80;;
16262;SDS011;8239;48.594;8.598;2022-08-03T05:23:03;4.20;;;3.80;;
16262;SDS011;8239;48.594;8.598;2022-08-03T05:25:30;3.85;;;3.55;;
16262;SDS011;8239;48.594;8.598;2022-08-03T05:27:58;4.93;;;3.53;;
16262;SDS011;8239;48.594;8.598;2022-08-03T05:30:25;3.83;;;3.53;;
16262;SDS011;8239;48.594;8.598;2022-08-03T05:32:52;4.50;;;3.50;;
16262;SDS011;8239;48.594;8.598;2022-08-03T05:35:19;4.13;;;3.80;;
16262;SDS011;8239;48.594;8.598;2022-08-03T05:37:46;4.38;;;3.92;;
16262;SDS011;8239;48.594;8.598;2022-08-03T05:40:14;4.10;;;3.80;;
16262;SDS011;8239;48.594;8.598;2022-08-03T05:42:41;4.05;;;3.70;;
16262;SDS011;8239;48.594;8.598;2022-08-03T05:45:09;3.70;;;3.40;;
16262;SDS011;8239;48.594;8.598;2022-08-03T05:47:41;3.65;;;3.35;;
16262;SDS011;8239;48.594;8.598;2022-08-03T05:50:08;4.00;;;3.70;;
16262;SDS011;8239;48.594;8.598;2022-08-03T05:52:36;4.47;;;4.07;;
16262;SDS011;8239;48.594;8.598;2022-08-03T05:55:04;3.58;;;3.25;;
16262;SDS011;8239;48.594;8.598;2022-08-03T05:57:32;3.70;;;3.40;;
16262;SDS011;8239;48.594;8.598;2022-08-03T06:00:00;3.47;;;3.20;;
16262;SDS011;8239;48.594;8.598;2022-08-03T06:02:30;4.70;;;3.58;;
16262;SDS011;8239;48.594;8.598;2022-08-03T06:04:57;3.83;;;3.53;;
16262;SDS011;8239;48.594;8.598;2022-08-03T06:07:24;3.40;;;3.20;;
16262;SDS011;8239;48.594;8.598;2022-08-03T06:09:51;3.70;;;3.40;;
16262;SDS011;8239;48.594;8.598;2022-08-03T06:12:18;3.50;;;3.25;;
16262;SDS011;8239;48.594;8.598;2022-08-03T06:14:46;3.78;;;3.47;;
16262;SDS011;8239;48.594;8.598;2022-08-03T06:17:13;3.90;;;3.60;;
16262;SDS011;8239;48.594;8.598;2022-08-03T06:19:40;3.42;;;3.08;;
16262;SDS011;8239;48.594;8.598;2022-08-03T06:22:07;3.60;;;3.30;;
16262;SDS011;8239;48.594;8.598;2022-08-03T06:24:34;3.60;;;3.30;;
16262;SDS011;8239;48.594;8.598;2022-08-03T06:27:01;3.60;;;3.08;;
16262;SDS011;8239;48.594;8.598;2022-08-03T06:29:29;3.42;;;3.22;;
16262;SDS011;8239;48.594;8.598;2022-08-03T06:31:57;3.50;;;3.20;;
16262;SDS011;8239;48.594;8.598;2022-08-03T06:34:24;3.25;;;3.05;;
16262;SDS011;8239;48.594;8.598;2022-08-03T06:36:51;3.42;;;3.20;;
16262;SDS011;8239;48.594;8.598;2022-08-03T06:39:18;3.22;;;3.03;;
16262;SDS011;8239;48.594;8.598;2022-08-03T06:41:46;3.00;;;2.80;;
16262;SDS011;8239;48.594;8.598;2022-08-03T06:44:13;3.03;;;2.80;;
16262;SDS011;8239;48.594;8.598;2022-08-03T06:46:40;2.88;;;2.70;;
16262;SDS011;8239;48.594;8.598;2022-08-03T06:49:08;2.80;;;2.60;;
16262;SDS011;8239;48.594;8.598;2022-08-03T06:51:35;3.00;;;2.80;;
16262;SDS011;8239;48.594;8.598;2022-08-03T06:54:02;2.65;;;2.53;;
16262;SDS011;8239;48.594;8.598;2022-08-03T06:56:29;2.97;;;2.78;;
16262;SDS011;8239;48.594;8.598;2022-08-03T06:58:56;2.70;;;2.50;;
16262;SDS011;8239;48.594;8.598;2022-08-03T07:01:24;2.80;;;2.60;;
16262;SDS011;8239;48.594;8.598;2022-08-03T07:03:50;2.90;;;2.70;;
16262;SDS011;8239;48.594;8.598;2022-08-03T07:06:20;2.58;;;2.38;;
16262;SDS011;8239;48.594;8.598;2022-08-03T07:08:47;3.85;;;2.45;;
16262;SDS011;8239;48.594;8.598;2022-08-03T07:11:14;2.80;;;2.60;;
16262;SDS011;8239;48.594;8.598;2022-08-03T07:13:41;2.47;;;2.30;;
16262;SDS011;8239;48.594;8.598;2022-08-03T07:16:08;2.33;;;2.20;;
16262;SDS011;8239;48.594;8.598;2022-08-03T07:18:36;2.38;;;2.28;;
16262;SDS011;8239;48.594;8.598;2022-08-03T07:21:04;2.50;;;2.30;;
16262;SDS011;8239;48.594;8.598;2022-08-03T07:23:33;2.35;;;2.25;;
16262;SDS011;8239;48.594;8.598;2022-08-03T07:26:00;2.00;;;1.90;;
16262;SDS011;8239;48.594;8.598;2022-08-03T07:28:27;2.22;;;2.13;;
16262;SDS011;8239;48.594;8.598;2022-08-03T07:30:54;2.05;;;1.92;;
16262;SDS011;8239;48.594;8.598;2022-08-03T07:33:21;2.35;;;2.15;;
16262;SDS011;8239;48.594;8.598;2022-08-03T07:35:48;2.30;;;2.10;;
16262;SDS011;8239;48.594;8.598;2022-08-03T07:38:15;2.00;;;1.90;;
16262;SDS011;8239;48.594;8.598;2022-08-03T07:40:44;2.28;;;2.08;;
16262;SDS011;8239;48.594;8.598;2022-08-03T07:43:11;1.50;;;1.50;;
16262;SDS011;8239;48.594;8.598;2022-08-03T07:45:38;1.85;;;1.75;;
16262;SDS011;8239;48.594;8.598;2022-08-03T07:48:05;1.65;;;1.55;;
16262;SDS011;8239;48.594;8.598;2022-08-03T07:50:32;1.67;;;1.58;;
16262;SDS011;8239;48.594;8.598;2022-08-03T07:52:59;1.75;;;1.65;;
16262;SDS011;8239;48.594;8.598;2022-08-03T07:55:26;2.47;;;1.52;;
16262;SDS011;8239;48.594;8.598;2022-08-03T07:58:03;1.83;;;1.73;;
16262;SDS011;8239;48.594;8.598;2022-08-03T08:00:31;1.70;;;1.60;;
16262;SDS011;8239;48.594;8.598;2022-08-03T08:02:59;1.63;;;1.52;;
16262;SDS011;8239;48.594;8.598;2022-08-03T08:05:26;2.00;;;1.70;;
16262;SDS011;8239;48.594;8.598;2022-08-03T08:07:54;1.67;;;1.58;;
16262;SDS011;8239;48.594;8.598;2022-08-03T08:10:21;1.77;;;1.67;;
16262;SDS011;8239;48.594;8.598;2022-08-03T08:12:48;1.95;;;1.85;;
16262;SDS011;8239;48.594;8.598;2022-08-03T08:15:16;2.03;;;1.60;;
16262;SDS011;8239;48.594;8.598;2022-08-03T08:17:44;2.08;;;1.55;;
16262;SDS011;8239;48.594;8.598;2022-08-03T08:20:14;2.35;;;1.60;;
16262;SDS011;8239;48.594;8.598;2022-08-03T08:22:42;1.58;;;1.48;;
16262;SDS011;8239;48.594;8.598;2022-08-03T08:25:09;1.63;;;1.52;;
16262;SDS011;8239;48.594;8.598;2022-08-03T08:27:43;1.55;;;1.45;;
16262;SDS011;8239;48.594;8.598;2022-08-03T08:30:13;2.38;;;1.70;;
16262;SDS011;8239;48.594;8.598;2022-08-03T08:32:44;1.55;;;1.55;;
16262;SDS011;8239;48.594;8.598;2022-08-03T08:35:15;1.95;;;1.60;;
16262;SDS011;8239;48.594;8.598;2022-08-03T08:37:42;1.67;;;1.58;;
16262;SDS011;8239;48.594;8.598;2022-08-03T08:40:10;1.85;;;1.75;;
16262;SDS011;8239;48.594;8.598;2022-08-03T08:42:38;1.60;;;1.50;;
16262;SDS011;8239;48.594;8.598;2022-08-03T08:45:09;1.35;;;1.35;;
16262;SDS011;8239;48.594;8.598;2022-08-03T08:47:37;1.70;;;1.60;;
16262;SDS011;8239;48.594;8.598;2022-08-03T08:50:07;1.50;;;1.50;;
16262;SDS011;8239;48.594;8.598;2022-08-03T08:52:35;1.52;;;1.50;;
16262;SDS011;8239;48.594;8.598;2022-08-03T08:55:06;1.58;;;1.58;;
16262;SDS011;8239;48.594;8.598;2022-08-03T08:57:41;1.40;;;1.30;;
16262;SDS011;8239;48.594;8.598;2022-08-03T09:00:15;1.40;;;1.40;;
16262;SDS011;8239;48.594;8.598;2022-08-03T09:02:43;1.40;;;1.40;;
16262;SDS011;8239;48.594;8.598;2022-08-03T09:05:20;1.90;;;1.80;;
16262;SDS011;8239;48.594;8.598;2022-08-03T09:07:47;1.60;;;1.50;;
16262;SDS011;8239;48.594;8.598;2022-08-03T09:10:15;1.80;;;1.70;;
16262;SDS011;8239;48.594;8.598;2022-08-03T09:12:46;1.60;;;1.60;;
16262;SDS011;8239;48.594;8.598;2022-08-03T09:15:18;1.65;;;1.55;;
16262;SDS011;8239;48.594;8.598;2022-08-03T09:17:46;1.63;;;1.50;;
16262;SDS011;8239;48.594;8.598;2022-08-03T09:20:14;1.60;;;1.60;;
16262;SDS011;8239;48.594;8.598;2022-08-03T09:22:52;1.60;;;1.60;;
16262;SDS011;8239;48.594;8.598;2022-08-03T09:25:31;1.80;;;1.70;;
16262;SDS011;8239;48.594;8.598;2022-08-03T09:28:06;2.45;;;1.90;;
16262;SDS011;8239;48.594;8.598;2022-08-03T09:30:35;1.50;;;1.50;;
16262;SDS011;8239;48.594;8.598;2022-08-03T09:33:03;2.40;;;1.50;;
16262;SDS011;8239;48.594;8.598;2022-08-03T09:35:31;1.63;;;1.52;;
16262;SDS011;8239;48.594;8.598;2022-08-03T09:38:10;1.60;;;1.50;;
16262;SDS011;8239;48.594;8.598;2022-08-03T09:40:38;2.70;;;1.80;;
16262;SDS011;8239;48.594;8.598;2022-08-03T09:43:07;2.40;;;2.20;;
16262;SDS011;8239;48.594;8.598;2022-08-03T09:45:34;1.65;;;1.52;;
16262;SDS011;8239;48.594;8.598;2022-08-03T09:50:50;1.70;;;1.60;;
16262;SDS011;8239;48.594;8.598;2022-08-03T09:53:20;1.70;;;1.60;;
16262;SDS011;8239;48.594;8.598;2022-08-03T09:55:49;1.83;;;1.73;;
16262;SDS011;8239;48.594;8.598;2022-08-03T09:58:18;1.80;;;1.70;;
16262;SDS011;8239;48.594;8.598;2022-08-03T10:00:53;1.83;;;1.73;;
16262;SDS011;8239;48.594;8.598;2022-08-03T10:03:25;2.50;;;1.90;;
16262;SDS011;8239;48.594;8.598;2022-08-03T10:05:53;2.17;;;1.90;;
16262;SDS011;8239;48.594;8.598;2022-08-03T10:08:22;1.80;;;1.70;;
16262;SDS011;8239;48.594;8.598;2022-08-03T10:10:50;2.05;;;1.70;;
16262;SDS011;8239;48.594;8.598;2022-08-03T10:13:19;2.42;;;1.50;;
16262;SDS011;8239;48.594;8.598;2022-08-03T10:15:47;1.75;;;1.65;;
16262;SDS011;8239;48.594;8.598;2022-08-03T10:18:15;1.75;;;1.65;;
16262;SDS011;8239;48.594;8.598;2022-08-03T10:20:43;2.72;;;1.90;;
16262;SDS011;8239;48.594;8.598;2022-08-03T10:23:14;2.08;;;1.98;;
16262;SDS011;8239;48.594;8.598;2022-08-03T10:25:45;2.13;;;2.00;;
16262;SDS011;8239;48.594;8.598;2022-08-03T10:28:15;1.90;;;1.80;;
16262;SDS011;8239;48.594;8.598;2022-08-03T10:30:46;2.20;;;1.90;;
16262;SDS011;8239;48.594;8.598;2022-08-03T10:33:16;1.85;;;1.75;;
16262;SDS011;8239;48.594;8.598;2022-08-03T10:35:45;1.88;;;1.77;;
16262;SDS011;8239;48.594;8.598;2022-08-03T10:38:16;1.85;;;1.70;;
16262;SDS011;8239;48.594;8.598;2022-08-03T10:40:47;1.75;;;1.65;;
16262;SDS011;8239;48.594;8.598;2022-08-03T10:43:17;3.03;;;1.80;;
16262;SDS011;8239;48.594;8.598;2022-08-03T10:45:46;1.90;;;1.80;;
16262;SDS011;8239;48.594;8.598;2022-08-03T10:48:14;1.80;;;1.70;;
16262;SDS011;8239;48.594;8.598;2022-08-03T10:50:43;2.17;;;1.80;;
16262;SDS011;8239;48.594;8.598;2022-08-03T10:53:13;2.10;;;2.00;;
16262;SDS011;8239;48.594;8.598;2022-08-03T10:55:41;2.65;;;1.98;;
16262;SDS011;8239;48.594;8.598;2022-08-03T10:58:46;1.70;;;1.60;;
16262;SDS011;8239;48.594;8.598;2022-08-03T11:01:18;2.55;;;1.70;;
16262;SDS011;8239;48.594;8.598;2022-08-03T11:04:14;2.00;;;1.80;;
16262;SDS011;8239;48.594;8.598;2022-08-03T11:06:43;3.30;;;1.88;;
16262;SDS011;8239;48.594;8.598;2022-08-03T11:09:16;1.90;;;1.80;;
16262;SDS011;8239;48.594;8.598;2022-08-03T11:11:44;4.30;;;2.00;;
16262;SDS011;8239;48.594;8.598;2022-08-03T11:14:15;2.10;;;2.00;;
16262;SDS011;8239;48.594;8.598;2022-08-03T11:16:44;2.50;;;1.70;;
16262;SDS011;8239;48.594;8.598;2022-08-03T11:19:13;2.65;;;2.03;;
16262;SDS011;8239;48.594;8.598;2022-08-03T11:21:56;1.92;;;1.83;;
16262;SDS011;8239;48.594;8.598;2022-08-03T11:27:23;2.30;;;2.20;;
16262;SDS011;8239;48.594;8.598;2022-08-03T11:29:56;1.90;;;1.80;;
16262;SDS011;8239;48.594;8.598;2022-08-03T11:35:23;1.83;;;1.73;;
16262;SDS011;8239;48.594;8.598;2022-08-03T11:38:05;2.65;;;1.80;;
16262;SDS011;8239;48.594;8.598;2022-08-03T11:40:36;1.75;;;1.70;;
16262;SDS011;8239;48.594;8.598;2022-08-03T11:43:05;1.70;;;1.40;;
16262;SDS011;8239;48.594;8.598;2022-08-03T11:45:35;1.80;;;1.60;;
16262;SDS011;8239;48.594;8.598;2022-08-03T11:48:11;1.95;;;1.80;;
16262;SDS011;8239;48.594;8.598;2022-08-03T11:50:40;2.45;;;2.00;;
16262;SDS011;8239;48.594;8.598;2022-08-03T11:53:11;2.03;;;1.92;;
16262;SDS011;8239;48.594;8.598;2022-08-03T11:55:40;3.65;;;2.00;;
16262;SDS011;8239;48.594;8.598;2022-08-03T11:58:13;1.85;;;1.75;;
16262;SDS011;8239;48.594;8.598;2022-08-03T12:00:43;1.75;;;1.65;;
16262;SDS011;8239;48.594;8.598;2022-08-03T12:03:11;2.55;;;2.00;;
16262;SDS011;8239;48.594;8.598;2022-08-03T12:05:42;1.80;;;1.70;;
16262;SDS011;8239;48.594;8.598;2022-08-03T12:08:11;1.80;;;1.70;;
16262;SDS011;8239;48.594;8.598;2022-08-03T12:10:40;1.70;;;1.60;;
16262;SDS011;8239;48.594;8.598;2022-08-03T12:13:12;1.90;;;1.80;;
16262;SDS011;8239;48.594;8.598;2022-08-03T12:15:39;2.58;;;1.80;;
16262;SDS011;8239;48.594;8.598;2022-08-03T12:18:15;1.95;;;1.80;;
16262;SDS011;8239;48.594;8.598;2022-08-03T12:20:44;1.77;;;1.67;;
16262;SDS011;8239;48.594;8.598;2022-08-03T12:23:12;1.98;;;1.88;;
16262;SDS011;8239;48.594;8.598;2022-08-03T12:25:40;1.98;;;1.70;;
16262;SDS011;8239;48.594;8.598;2022-08-03T12:28:09;1.88;;;1.75;;
16262;SDS011;8239;48.594;8.598;2022-08-03T12:30:44;2.38;;;1.70;;
16262;SDS011;8239;48.594;8.598;2022-08-03T12:33:14;2.28;;;1.80;;
16262;SDS011;8239;48.594;8.598;2022-08-03T12:35:48;2.00;;;1.90;;
16262;SDS011;8239;48.594;8.598;2022-08-03T12:38:20;1.80;;;1.70;;
16262;SDS011;8239;48.594;8.598;2022-08-03T12:40:57;1.80;;;1.70;;
16262;SDS011;8239;48.594;8.598;2022-08-03T12:43:26;2.00;;;1.80;;
16262;SDS011;8239;48.594;8.598;2022-08-03T12:49:03;1.90;;;1.80;;
16262;SDS011;8239;48.594;8.598;2022-08-03T12:51:35;3.20;;;1.60;;
16262;SDS011;8239;48.594;8.598;2022-08-03T12:54:04;3.38;;;1.80;;
16262;SDS011;8239;48.594;8.598;2022-08-03T12:56:31;1.63;;;1.60;;
16262;SDS011;8239;48.594;8.598;2022-08-03T12:58:58;1.83;;;1.73;;
16262;SDS011;8239;48.594;8.598;2022-08-03T13:01:26;2.83;;;1.70;;
16262;SDS011;8239;48.594;8.598;2022-08-03T13:04:03;2.97;;;1.60;;
16262;SDS011;8239;48.594;8.598;2022-08-03T13:06:30;1.88;;;1.77;;
16262;SDS011;8239;48.594;8.598;2022-08-03T13:09:02;1.58;;;1.50;;
16262;SDS011;8239;48.594;8.598;2022-08-03T13:11:30;1.98;;;1.60;;
16262;SDS011;8239;48.594;8.598;2022-08-03T13:13:57;1.80;;;1.70;;
16262;SDS011;8239;48.594;8.598;2022-08-03T13:16:24;1.98;;;1.88;;
16262;SDS011;8239;48.594;8.598;2022-08-03T13:18:51;1.80;;;1.70;;
16262;SDS011;8239;48.594;8.598;2022-08-03T13:21:20;1.70;;;1.60;;
16262;SDS011;8239;48.594;8.598;2022-08-03T13:23:47;2.53;;;1.77;;
16262;SDS011;8239;48.594;8.598;2022-08-03T13:26:14;1.73;;;1.63;;
16262;SDS011;8239;48.594;8.598;2022-08-03T13:28:41;1.70;;;1.60;;
16262;SDS011;8239;48.594;8.598;2022-08-03T13:31:08;1.65;;;1.55;;
16262;SDS011;8239;48.594;8.598;2022-08-03T13:33:35;1.92;;;1.65;;
16262;SDS011;8239;48.594;8.598;2022-08-03T13:36:03;1.70;;;1.60;;
16262;SDS011;8239;48.594;8.598;2022-08-03T13:38:32;2.85;;;1.90;;
16262;SDS011;8239;48.594;8.598;2022-08-03T13:40:59;1.70;;;1.60;;
16262;SDS011;8239;48.594;8.598;2022-08-03T13:43:28;1.60;;;1.50;;
16262;SDS011;8239;48.594;8.598;2022-08-03T13:45:55;1.80;;;1.70;;
16262;SDS011;8239;48.594;8.598;2022-08-03T13:48:22;2.97;;;1.65;;
16262;SDS011;8239;48.594;8.598;2022-08-03T13:50:49;2.85;;;1.70;;
16262;SDS011;8239;48.594;8.598;2022-08-03T13:53:16;1.90;;;1.75;;
16262;SDS011;8239;48.594;8.598;2022-08-03T13:55:45;1.60;;;1.50;;
16262;SDS011;8239;48.594;8.598;2022-08-03T13:58:12;1.70;;;1.60;;
16262;SDS011;8239;48.594;8.598;2022-08-03T14:00:39;1.83;;;1.60;;
16262;SDS011;8239;48.594;8.598;2022-08-03T14:03:06;1.85;;;1.75;;
16262;SDS011;8239;48.594;8.598;2022-08-03T14:05:33;1.90;;;1.50;;
16262;SDS011;8239;48.594;8.598;2022-08-03T14:08:02;1.83;;;1.73;;
16262;SDS011;8239;48.594;8.598;2022-08-03T14:10:31;1.90;;;1.70;;
16262;SDS011;8239;48.594;8.598;2022-08-03T14:13:00;2.08;;;1.73;;
16262;SDS011;8239;48.594;8.598;2022-08-03T14:15:30;1.75;;;1.65;;
16262;SDS011;8239;48.594;8.598;2022-08-03T14:17:58;2.00;;;1.70;;
16262;SDS011;8239;48.594;8.598;2022-08-03T14:20:32;1.58;;;1.48;;
16262;SDS011;8239;48.594;8.598;2022-08-03T14:22:59;1.75;;;1.63;;
16262;SDS011;8239;48.594;8.598;2022-08-03T14:25:26;1.70;;;1.58;;
16262;SDS011;8239;48.594;8.598;2022-08-03T14:27:56;2.05;;;1.50;;
16262;SDS011;8239;48.594;8.598;2022-08-03T14:30:24;1.60;;;1.50;;
16262;SDS011;8239;48.594;8.598;2022-08-03T14:32:51;1.75;;;1.60;;
16262;SDS011;8239;48.594;8.598;2022-08-03T14:35:18;1.52;;;1.50;;
16262;SDS011;8239;48.594;8.598;2022-08-03T14:37:45;2.40;;;1.65;;
16262;SDS011;8239;48.594;8.598;2022-08-03T14:40:12;1.65;;;1.55;;
16262;SDS011;8239;48.594;8.598;2022-08-03T14:42:39;1.52;;;1.42;;
16262;SDS011;8239;48.594;8.598;2022-08-03T14:45:06;1.63;;;1.55;;
16262;SDS011;8239;48.594;8.598;2022-08-03T14:47:35;1.83;;;1.73;;
16262;SDS011;8239;48.594;8.598;2022-08-03T14:50:02;2.05;;;1.70;;
16262;SDS011;8239;48.594;8.598;2022-08-03T14:52:30;2.15;;;1.88;;
16262;SDS011;8239;48.594;8.598;2022-08-03T14:54:57;2.58;;;1.90;;
16262;SDS011;8239;48.594;8.598;2022-08-03T14:57:25;2.00;;;1.90;;
16262;SDS011;8239;48.594;8.598;2022-08-03T14:59:53;2.00;;;1.80;;
16262;SDS011;8239;48.594;8.598;2022-08-03T15:02:20;1.73;;;1.63;;
16262;SDS011;8239;48.594;8.598;2022-08-03T15:04:48;2.53;;;1.70;;
16262;SDS011;8239;48.594;8.598;2022-08-03T15:07:15;2.08;;;1.60;;
16262;SDS011;8239;48.594;8.598;2022-08-03T15:09:42;1.90;;;1.80;;
16262;SDS011;8239;48.594;8.598;2022-08-03T15:12:09;1.90;;;1.80;;
16262;SDS011;8239;48.594;8.598;2022-08-03T15:14:36;1.92;;;1.83;;
16262;SDS011;8239;48.594;8.598;2022-08-03T15:17:03;2.28;;;1.40;;
16262;SDS011;8239;48.594;8.598;2022-08-03T15:19:30;1.85;;;1.75;;
16262;SDS011;8239;48.594;8.598;2022-08-03T15:21:59;1.77;;;1.67;;
16262;SDS011;8239;48.594;8.598;2022-08-03T15:24:26;1.80;;;1.70;;